首页
METAR-TAF:

METAR-TAF

机场 :

艾拉島, 苏格兰

纬度: 55-40-55N, 经度: 006-15-24W, 海拔: 16米

当前天气观测

该预报发布于17分钟前的11:20 UTC
风速8节,风向西,在西南西转西北之间变化
温度 19°C
湿度 83%
气压 1017 hPa
能见度10公里或以上
少量云层高于3000英尺

METAR: EGPI 141120Z 26008KT 230V290 9999 FEW030 19/16 Q1017

时间: 12:37 (11:37 UTC)

预报

该预报发布于35分钟前的11:02 UTC
预报有效从14日的 12点(UTC)到 14日的 21点(UTC)
风速5节,风向西
能见度10公里或以上
少量云层高于3000英尺

TAF: EGPI 141102Z 1412/1421 27005KT 9999 FEW030

超过4000个机场的气象观测和天气预报(METAR&TAF报告)。

可查询的气象台以黄色和红色小点在地图上表示。

将鼠标移到小点上方,可查看气象台名称。

然后点击查看天气观测和预报。

如需切换地图:点击带黑十字的绿色按钮放大地图;点击带横线的绿色按钮缩小地图;或者点击绿色箭头查看邻近地区的地图。


METAR-TAF: